This is the latest recevied weather packets stored in our database for station/object CE7LGA-10. If no packets are shown the sender has not sent any weather packets the latest 10 day(s).
| Time | Temp. | Humidity | Pressure | Rain* | Wind** | Luminosity | Snow |
|---|---|---|---|---|---|---|---|
| 1787713704 | 16.67° C | 64% | 988.5 hPa | - | - | - | - |
| 1787712804 | 17.22° C | 64% | 988.7 hPa | - | - | - | - |
| 1787711903 | 18.33° C | 64% | 988.8 hPa | - | - | - | - |
| 1787711003 | 18.89° C | 63% | 988.7 hPa | - | - | - | - |
| 1787710103 | 20.56° C | 61% | 988.7 hPa | - | - | - | - |
| 1787709203 | 20° C | 61% | 988.7 hPa | - | - | - | - |
| 1787708303 | 20° C | 61% | 988.8 hPa | - | - | - | - |
| 1787707403 | 20° C | 61% | 988.7 hPa | - | - | - | - |
| 1787706503 | 20° C | 60% | 988.8 hPa | - | - | - | - |
| 1787705603 | 20.56° C | 61% | 988.8 hPa | - | - | - | - |
| 1787704703 | 20° C | 64% | 988.7 hPa | - | - | - | - |
| 1787703802 | 20° C | 63% | 988.7 hPa | - | - | - | - |
| 1787702902 | 20° C | 63% | 988.9 hPa | - | - | - | - |
| 1787702002 | 20° C | 64% | 988.8 hPa | - | - | - | - |
| 1787701102 | 19.44° C | 64% | 988.7 hPa | - | - | - | - |
| 1787700202 | 20° C | 65% | 988.8 hPa | - | - | - | - |
| 1787699302 | 19.44° C | 67% | 988.9 hPa | - | - | - | - |
| 1787698401 | 19.44° C | 68% | 988.8 hPa | - | - | - | - |
| 1787697503 | 18.89° C | 69% | 988.6 hPa | - | - | - | - |
| 1787696603 | 18.89° C | 69% | 988.5 hPa | - | - | - | - |
| 1787695703 | 17.78° C | 72% | 988.3 hPa | - | - | - | - |
| 1787694803 | 16.67° C | 72% | 988.2 hPa | - | - | - | - |
| 1787693903 | 14.44° C | 72% | 988 hPa | - | - | - | - |
| 1787693003 | 14.44° C | 72% | 988 hPa | - | - | - | - |
| 1787692103 | 14.44° C | 71% | 987.9 hPa | - | - | - | - |
* Rain since midnight (hover to see other rain measurements)
** Current wind speed in m/s (hover to see current wind gust speed)